Flight Track Log - Related Links

Times and Time Zones

All times are in EDT time to prevent confusion due to time zone crossing. See the DAL4888 flight status page for this flight to view local times or setup timezone preferences in your user account.

Time Position Orientation Groundspeed Altitude Reporting Facility
EDT Latitude Longitude Course Direction KTS MPH feet Rate Location/Type
Mon 08:45:12 AM 32.5236 -91.8183 93° East 268 308 6,500  Level Memphis Center
Mon 08:46:12 AM 32.5225 -91.7247 91° East 353 406 9,000 2,300 Climbing Memphis Center
Mon 08:47:12 AM 32.5153 -91.6261 95° East 311 358 11,100 1,400 Climbing Memphis Center
Mon 08:48:00 AM 32.4833 -91.4481 90° East  Level FlightAware Approximate
Mon 08:48:12 AM 32.5122 -91.5200 92° East 306 352 11,800  Level Memphis Center
Mon 08:49:00 AM 32.4833 -91.3577 90° East  Level FlightAware Approximate
Mon 08:49:12 AM 32.5089 -91.4042 92° East 330 380 13,200  Level Memphis Center
Mon 08:50:00 AM 32.4826 -91.2674 93° East  Level FlightAware Approximate
Mon 08:50:12 AM 32.5036 -91.2836 93° East 349 402 14,800  Level Memphis Center
Mon 08:51:12 AM 32.4961 -91.1603 94° East 368 423 16,100 1,300 Climbing Memphis Center
Mon 08:52:12 AM 32.4925 -91.0469 92° East 376 433 17,400 1,100 Climbing Memphis Center
Mon 08:53:12 AM 32.4892 -90.9214 92° East 376 433 18,300 900 Climbing Memphis Center
Mon 08:54:12 AM 32.4833 -90.7908 93° East 388 447 19,200 900 Climbing Memphis Center
Mon 08:55:12 AM 32.4775 -90.6578 93° East 393 452 20,100 900 Climbing Memphis Center
Mon 08:56:12 AM 32.4694 -90.5247 94° East 398 458 21,000 900 Climbing Memphis Center
Mon 08:57:12 AM 32.4653 -90.3917 92° East 404 465 21,900 900 Climbing Memphis Center
Mon 08:58:12 AM 32.4569 -90.2589 94° East 404 465 22,800 800 Climbing Memphis Center
Mon 08:59:12 AM 32.4503 -90.1258 93° East 404 465 23,500 600 Climbing Memphis Center
Mon 09:00:12 AM 32.4439 -89.9881 93° East 404 465 24,000 550 Climbing Memphis Center
Mon 09:01:12 AM 32.4350 -89.8503 94° East 410 472 24,600 700 Climbing Memphis Center
Mon 09:02:12 AM 32.4300 -89.6953 92° East 422 486 25,400 700 Climbing Memphis Center
Mon 09:03:12 AM 32.4208 -89.5550 94° East 422 486 26,000 600 Climbing Memphis Center
Mon 09:04:12 AM 32.4136 -89.4125 93° East 422 486 26,600 600 Climbing Memphis Center
Mon 09:05:12 AM 32.4061 -89.2697 94° East 422 486 27,200 600 Climbing Memphis Center
Mon 09:06:12 AM 32.3964 -89.1272 95° East 427 491 27,800 600 Climbing Memphis Center
Mon 09:07:12 AM 32.3886 -88.9844 94° East 427 491 28,400 600 Climbing Memphis Center
Mon 09:08:12 AM 32.3808 -88.8394 94° East 427 491 29,000 600 Climbing Memphis Center
Mon 09:09:12 AM 32.3936 -88.6942 84° East 427 491 29,600 588 Climbing Memphis Center
Mon 09:11:36 AM 32.4331 -88.3553 82° East 459 528 31,000 412 Climbing Atlanta Center
Mon 09:12:36 AM 32.4506 -88.2058 82° East 459 528 31,000  Level Atlanta Center
Mon 09:13:36 AM 32.4681 -88.0567 82° East 459 528 31,000 -50 Level Atlanta Center
Mon 09:14:36 AM 32.4894 -87.9147 80° East 472 543 30,900 -650 Descending Atlanta Center
Mon 09:15:36 AM 32.5214 -87.7561 77° East 483 556 29,700 -950 Descending Atlanta Center
Mon 09:16:36 AM 32.5575 -87.5925 75° East 496 571 29,000 -350 Descending Atlanta Center
Mon 09:17:36 AM 32.5931 -87.4361 75° East 502 578 29,000  Level Atlanta Center
Mon 09:18:36 AM 32.6247 -87.2769 77° East 502 578 29,000 -50 Level Atlanta Center
Mon 09:19:36 AM 32.6600 -87.1206 75° East 497 572 28,900 -450 Descending Atlanta Center
Mon 09:20:36 AM 32.6908 -86.9686 76° East 489 563 28,100 -800 Descending Atlanta Center
Mon 09:21:36 AM 32.7281 -86.8019 75° East 489 563 27,300 -550 Descending Atlanta Center
Mon 09:22:36 AM 32.7608 -86.6397 76° East 489 563 27,000 -150 Descending Atlanta Center
Mon 09:23:36 AM 32.7933 -86.4803 76° East 489 563 27,000 -200 Level Atlanta Center
Mon 09:24:36 AM 32.8278 -86.3181 76° East 483 556 26,600 -500 Descending Atlanta Center
Mon 09:25:36 AM 32.8572 -86.1803 76° East 453 521 26,000 -550 Descending Atlanta Center
Mon 09:26:36 AM 32.8825 -86.0497 77° East 427 491 25,500 -750 Descending Atlanta Center
Mon 09:27:36 AM 32.8864 -85.9311 88° East 396 456 24,500 -1,000 Descending Atlanta Center
Mon 09:28:36 AM 32.8694 -85.8047 99° East 375 432 23,500 -1,150 Descending Atlanta Center
Mon 09:29:36 AM 32.8525 -85.6806 99° East 375 432 22,200 -1,300 Descending Atlanta Center
Mon 09:30:36 AM 32.8308 -85.5617 102° East 370 426 20,900 -1,450 Descending Atlanta Center
Mon 09:31:36 AM 32.8136 -85.4475 100° East 365 420 19,300 -1,600 Descending Atlanta Center
Mon 09:32:36 AM 32.8356 -85.3442 76° East 333 383 17,700 -1,600 Descending Atlanta Center
Mon 09:33:36 AM 32.9136 -85.2736 37° Northeast 301 346 16,100 -1,600 Descending Atlanta Center
Mon 09:34:36 AM 32.9892 -85.2078 36° Northeast 312 359 14,500 -1,600 Descending Atlanta Center
Mon 09:35:36 AM 33.0628 -85.1467 35° Northeast 317 365 12,900 -1,250 Descending Atlanta Center
Mon 09:36:36 AM 33.1322 -85.0831 37° Northeast 317 365 12,000 -500 Descending Atlanta Center
Mon 09:37:36 AM 33.1933 -85.0194 41° Northeast 300 345 11,900 -700 Descending Atlanta Center
Mon 09:38:36 AM 33.2483 -84.9456 48° Northeast 295 339 10,600 -1,100 Descending Atlanta Center
Mon 09:39:36 AM 33.3031 -84.8764 47° Northeast 288 331 9,700 -1,050 Descending Atlanta Center
Mon 09:40:36 AM 33.3617 -84.8322 32° Northeast 288 331 8,500 -1,350 Descending Atlanta Center
Mon 09:41:36 AM 33.4347 -84.8578 344° North 248 285 7,000 -1,550 Descending Atlanta Center
Mon 09:42:36 AM 33.5075 -84.8808 345° North 261 300 5,400 -1,500 Descending Atlanta Center
Mon 09:43:36 AM 33.5742 -84.9039 344° North 256 295 4,000 -717 Descending Atlanta Center
Mon 09:45:15 AM 33.6167 -84.8167 60° Northeast 177 204 3,500 -392 Descending Atlanta TRACON
Mon 09:46:09 AM 33.6167 -84.7667 90° East 172 198 3,000 -250 Descending Atlanta TRACON
Mon 09:47:15 AM 33.6167 -84.7000 90° East 171 197 3,000  Level Atlanta TRACON
Mon 09:48:15 AM 33.6167 -84.6500 90° East 169 194 3,000  Level Atlanta TRACON
Mon 09:49:21 AM 33.6167 -84.5833 90° East 169 194 3,000 -250 Level Atlanta TRACON
Mon 09:50:15 AM 33.6167 -84.5333 90° East 148 170 2,500 -684 Descending Atlanta TRACON
Mon 09:51:15 AM 33.6167 -84.4833 90° East 141 162 1,700 -800 Descending Atlanta TRACON
Mon 09:53:00 AM 33.6367 -84.4279 80° East  Level Estimated
Mon 10:00:00 AM 33.6367 -84.4279 80° East  Level Estimated

Login

Don't have an account? Register now (free) for customized features, flight alerts, and more!